Touranou — SX7051 — position and weather

sailwx.info

Track history (hours):
 
Tides and Currents Weather Stations Pressure Air Temp Water Temp Dewpoint Dewpoint Depression Visibility Wind Speed Wind Dir Waves Ship Positions

Touranou

Last reported at 2017-Nov-25 10:55 UTC. Time now 2018-Feb-22 14:58 UTC.
Position N 37°24' E 024°59'.
Warning: this ship's position is months out of date.

Length 16 m.

Type: Sailing vessel. MMSI: 237172600.

Date/timePositionNaut miles runAvg speedWind from/ knotsBaromVisibWave heightAir tempDewpointWater temp
2017-Nov-25 10:55N 37°24' E 024°59'1 3.0
2017-Nov-25 10:25N 37°23' E 024°58'2 4.7
2017-Nov-25 10:00N 37°22' E 024°55'2 4.6
2017-Nov-25 09:31N 37°22' E 024°52'2 3.7
2017-Nov-25 08:57N 37°24' E 024°53'0 0.0
2017-Nov-25 08:24N 37°24' E 024°53'0 0.0
2017-Nov-25 08:00N 37°24' E 024°53'0 0.0
2017-Nov-25 07:24N 37°24' E 024°53'0 0.0
2017-Nov-25 07:00N 37°24' E 024°53'0 0.0
2017-Nov-25 06:24N 37°24' E 024°53'0 0.0
2017-Nov-25 06:00N 37°24' E 024°53'0 0.0
2017-Nov-25 05:15N 37°24' E 024°53'0 0.0
2017-Nov-25 05:00N 37°24' E 024°53'0 0.0
2017-Nov-25 04:24N 37°24' E 024°53'0 0.0
2017-Nov-25 03:57N 37°24' E 024°53'0 0.0
2017-Nov-25 03:30N 37°24' E 024°53'0 0.0
2017-Nov-25 02:57N 37°24' E 024°53'0 0.0
2017-Nov-25 02:30N 37°24' E 024°53'0 0.0
2017-Nov-25 01:54N 37°24' E 024°53'0 0.0
2017-Nov-25 01:27N 37°24' E 024°53'0 0.0
2017-Nov-25 00:57N 37°24' E 024°53'0 0.0
2017-Nov-25 00:30N 37°24' E 024°53'0 0.0
2017-Nov-25 00:00N 37°24' E 024°53'0 0.0
2017-Nov-24 23:30N 37°24' E 024°53'0 0.0
2017-Nov-24 22:57N 37°24' E 024°53'0 0.0
2017-Nov-24 22:30N 37°24' E 024°53'0 0.0
2017-Nov-24 22:00N 37°24' E 024°53'0 0.0
2017-Nov-24 21:24N 37°24' E 024°53'0 0.0
2017-Nov-24 21:00N 37°24' E 024°53'0 0.0
2017-Nov-24 20:30N 37°24' E 024°53'0 0.0
2017-Nov-24 19:51N 37°24' E 024°53'0 0.0
2017-Nov-24 19:06N 37°24' E 024°53'0 0.0
2017-Nov-24 19:00N 37°24' E 024°53'0 0.0
2017-Nov-24 18:30N 37°24' E 024°53'0 0.0
2017-Nov-24 17:57N 37°24' E 024°53'0 0.0
2017-Nov-24 17:30N 37°24' E 024°53'1 1.6
2017-Nov-24 17:00N 37°23' E 024°52'14 6.2
2017-Nov-24 14:43N 37°15' E 024°37'1 2.1
2017-Nov-24 14:28N 37°15' E 024°37'0 0.3
2017-Nov-24 14:00N 37°15' E 024°37'0 0.2
2017-Nov-24 13:30N 37°15' E 024°37'0 0.1
2017-Nov-24 12:59N 37°15' E 024°37'0 0.1
2017-Nov-24 12:28N 37°15' E 024°37'1 2.1
2017-Nov-24 12:00N 37°16' E 024°38'3 5.6
2017-Nov-24 11:30N 37°17' E 024°41'3 5.6
2017-Nov-24 11:00N 37°18' E 024°44'3 5.7
2017-Nov-24 10:30N 37°19' E 024°47'3 6.0
2017-Nov-24 10:00N 37°21' E 024°51'2 4.6
2017-Nov-24 09:30N 37°22' E 024°53'2 3.0
2017-Nov-24 09:01N 37°23' E 024°52'1 0.5
2017-Nov-24 07:42N 37°24' E 024°53'0 0.0
2017-Nov-24 07:15N 37°24' E 024°53'0 0.0
2017-Nov-24 06:45N 37°24' E 024°53'0 0.0
2017-Nov-24 06:30N 37°24' E 024°53'0 0.0
2017-Nov-24 06:00N 37°24' E 024°53'0 0.0
2017-Nov-24 05:30N 37°24' E 024°53'0 0.0
2017-Nov-24 05:00N 37°24' E 024°53'0 0.0
2017-Nov-24 04:27N 37°24' E 024°53'0 0.0
2017-Nov-24 04:00N 37°24' E 024°53'0 0.0
2017-Nov-24 03:27N 37°24' E 024°53'0 0.0
2017-Nov-24 02:51N 37°24' E 024°53'0 0.0
2017-Nov-24 02:30N 37°24' E 024°53'0 0.0
2017-Nov-24 02:00N 37°24' E 024°53'0 0.0
2017-Nov-24 01:27N 37°24' E 024°53'0 0.0
2017-Nov-24 00:57N 37°24' E 024°53'0 0.0
2017-Nov-24 00:27N 37°24' E 024°53'0 0.0
2017-Nov-24 00:00N 37°24' E 024°53'0 0.0
2017-Nov-23 23:30N 37°24' E 024°53'0 0.0
2017-Nov-23 22:51N 37°24' E 024°53'0 0.0
2017-Nov-23 22:27N 37°24' E 024°53'0 0.0
2017-Nov-23 21:57N 37°24' E 024°53'0 0.0
2017-Nov-23 20:30N 37°24' E 024°53'0 0.0
2017-Nov-23 19:57N 37°24' E 024°53'0 0.0
2017-Nov-23 19:24N 37°24' E 024°53'0 0.0
2017-Nov-23 18:42N 37°24' E 024°53'0 0.0
2017-Nov-23 18:15N 37°24' E 024°53'0 0.0
2017-Nov-23 17:51N 37°24' E 024°53'0 0.0
2017-Nov-23 16:51N 37°24' E 024°53'0 0.0
2017-Nov-23 13:45N 37°24' E 024°53'0 0.0
2017-Nov-23 13:27N 37°24' E 024°53'0 0.0
2017-Nov-23 12:03N 37°24' E 024°53'0 0.0
2017-Nov-23 11:57N 37°24' E 024°53'0 0.0
2017-Nov-23 11:27N 37°24' E 024°53'0 0.0
2017-Nov-23 11:00N 37°24' E 024°53'0 0.0
2017-Nov-23 10:24N 37°24' E 024°53'0 0.0
2017-Nov-23 08:45N 37°24' E 024°53'0 0.0
2017-Nov-23 08:21N 37°24' E 024°53'0 0.0
2017-Nov-23 07:57N 37°24' E 024°53'0 0.0
2017-Nov-23 07:30N 37°24' E 024°53'0 0.0
2017-Nov-23 07:00N 37°24' E 024°53'0 0.0
2017-Nov-23 06:30N 37°24' E 024°53'0 0.0
2017-Nov-23 05:57N 37°24' E 024°53'0 0.0
2017-Nov-23 05:27N 37°24' E 024°53'0 0.0
2017-Nov-23 04:51N 37°24' E 024°53'0 0.0
2017-Nov-23 04:27N 37°24' E 024°53'0 0.0
2017-Nov-22 23:39N 37°24' E 024°53'0 0.0
2017-Nov-22 23:27N 37°24' E 024°53'0 0.0
2017-Nov-22 22:48N 37°24' E 024°53'0 0.0
2017-Nov-22 22:30N 37°24' E 024°53'0 0.0
2017-Nov-22 21:39N 37°24' E 024°53'0 0.0
2017-Nov-22 21:27N 37°24' E 024°53'0 0.0
2017-Nov-22 20:54N 37°24' E 024°53'0 0.0
2017-Nov-22 20:30N 37°24' E 024°53'0 0.0
2017-Nov-22 19:54N 37°24' E 024°53'0 0.0
2017-Nov-22 19:30N 37°24' E 024°53'  
2017-Nov-20 00:28N 37°24' E 024°53'0 0.0
2017-Nov-19 23:58N 37°24' E 024°53'0 0.0
2017-Nov-19 23:28N 37°24' E 024°53'0 0.0
2017-Nov-19 22:58N 37°24' E 024°53'0 0.0
2017-Nov-19 22:28N 37°24' E 024°53'0 0.0
2017-Nov-19 21:58N 37°24' E 024°53'0 0.0
2017-Nov-19 21:28N 37°24' E 024°53'0 0.0
2017-Nov-19 20:58N 37°24' E 024°53'0 0.0
2017-Nov-19 20:25N 37°24' E 024°53'0 0.0
2017-Nov-19 19:58N 37°24' E 024°53'0 0.0
2017-Nov-19 19:28N 37°24' E 024°53'0 0.0
2017-Nov-19 18:55N 37°24' E 024°53'0 0.0
2017-Nov-19 18:25N 37°24' E 024°53'0 0.0
2017-Nov-19 17:58N 37°24' E 024°53'0 0.0
2017-Nov-19 17:28N 37°24' E 024°53'0 0.0
2017-Nov-19 16:55N 37°24' E 024°53'0 0.0
2017-Nov-19 16:28N 37°24' E 024°53'0 0.0
2017-Nov-19 15:58N 37°24' E 024°53'0 0.0
2017-Nov-19 15:22N 37°24' E 024°53'0 0.0
2017-Nov-19 14:49N 37°24' E 024°53'0 0.0
2017-Nov-19 14:22N 37°24' E 024°53'0 0.0
2017-Nov-19 13:31N 37°24' E 024°53'0 0.0
2017-Nov-19 13:28N 37°24' E 024°53'0 0.0
2017-Nov-19 12:58N 37°24' E 024°53'0 0.0
2017-Nov-19 12:28N 37°24' E 024°53'0 0.0
2017-Nov-19 11:58N 37°24' E 024°53'0 0.0
2017-Nov-19 11:28N 37°24' E 024°53'0 0.0
2017-Nov-19 10:58N 37°24' E 024°53'0 0.0
2017-Nov-19 10:28N 37°24' E 024°53'0 0.0
2017-Nov-19 09:58N 37°24' E 024°53'0 0.0
2017-Nov-19 09:28N 37°24' E 024°53'0 0.0
2017-Nov-19 08:55N 37°24' E 024°53'0 0.0
2017-Nov-19 08:25N 37°24' E 024°53'0 0.0
2017-Nov-19 07:58N 37°24' E 024°53'0 0.0
2017-Nov-19 07:28N 37°24' E 024°53'0 0.0
2017-Nov-19 06:58N 37°24' E 024°53'0 0.0
2017-Nov-19 06:19N 37°24' E 024°53'0 0.0
2017-Nov-19 05:52N 37°24' E 024°53'0 0.0
2017-Nov-19 05:28N 37°24' E 024°53'0 0.0
2017-Nov-19 04:58N 37°24' E 024°53'0 0.0
2017-Nov-19 04:28N 37°24' E 024°53'0 0.0
2017-Nov-19 03:58N 37°24' E 024°53'0 0.0
2017-Nov-19 03:28N 37°24' E 024°53'0 0.0
2017-Nov-19 02:52N 37°24' E 024°53'0 0.0
2017-Nov-19 01:58N 37°24' E 024°53'0 0.0
2017-Nov-19 01:28N 37°24' E 024°53'0 0.0
2017-Nov-19 00:58N 37°24' E 024°53'0 0.0
2017-Nov-19 00:28N 37°24' E 024°53'0 0.0
2017-Nov-18 23:55N 37°24' E 024°53'0 0.0
2017-Nov-18 23:28N 37°24' E 024°53'0 0.0
2017-Nov-18 22:58N 37°24' E 024°53'0 0.0
2017-Nov-18 22:28N 37°24' E 024°53'0 0.0
2017-Nov-18 21:55N 37°24' E 024°53'0 0.0
2017-Nov-18 21:28N 37°24' E 024°53'0 0.0
2017-Nov-18 20:58N 37°24' E 024°53'0 0.0
2017-Nov-18 20:28N 37°24' E 024°53'0 0.0
2017-Nov-18 19:55N 37°24' E 024°53'0 0.0
2017-Nov-18 19:28N 37°24' E 024°53'0 0.0
2017-Nov-18 18:55N 37°24' E 024°53'0 0.0
2017-Nov-18 18:28N 37°24' E 024°53'0 0.0
2017-Nov-18 17:58N 37°24' E 024°53'0 0.0
2017-Nov-18 17:28N 37°24' E 024°53'0 0.0
2017-Nov-18 16:58N 37°24' E 024°53'0 0.0
2017-Nov-18 16:16N 37°24' E 024°53'0 0.0
2017-Nov-18 15:58N 37°24' E 024°53'0 0.0
2017-Nov-18 15:28N 37°24' E 024°53'0 0.0
2017-Nov-18 14:58N 37°24' E 024°53'0 0.0
2017-Nov-18 14:28N 37°24' E 024°53'0 0.0
2017-Nov-18 13:58N 37°24' E 024°53'0 0.0
2017-Nov-18 13:16N 37°24' E 024°53'0 0.0
2017-Nov-18 12:58N 37°24' E 024°53'0 0.0
2017-Nov-18 12:28N 37°24' E 024°53'0 0.0
2017-Nov-18 11:58N 37°24' E 024°53'0 0.0
2017-Nov-18 11:28N 37°24' E 024°53'0 0.0
2017-Nov-18 10:55N 37°24' E 024°53'0 0.0
2017-Nov-18 10:25N 37°24' E 024°53'0 0.0
2017-Nov-18 09:52N 37°24' E 024°53'0 0.0
2017-Nov-18 09:22N 37°24' E 024°53'0 0.0
2017-Nov-18 08:58N 37°24' E 024°53'0 0.0
2017-Nov-18 08:22N 37°24' E 024°53'0 0.0
2017-Nov-18 07:55N 37°24' E 024°53'0 0.0
2017-Nov-18 07:28N 37°24' E 024°53'0 0.0
2017-Nov-18 06:49N 37°24' E 024°53'0 0.0
2017-Nov-18 06:28N 37°24' E 024°53'0 0.0
2017-Nov-18 05:58N 37°24' E 024°53'0 0.0
2017-Nov-18 05:28N 37°24' E 024°53'0 0.0
2017-Nov-18 04:55N 37°24' E 024°53'0 0.0
2017-Nov-18 04:25N 37°24' E 024°53'0 0.0
2017-Nov-18 03:58N 37°24' E 024°53'0 0.0
2017-Nov-18 03:28N 37°24' E 024°53'0 0.0
2017-Nov-18 02:58N 37°24' E 024°53'0 0.0
2017-Nov-18 02:28N 37°24' E 024°53'0 0.0
2017-Nov-18 01:52N 37°24' E 024°53'0 0.0
2017-Nov-18 01:28N 37°24' E 024°53'0 0.0
2017-Nov-18 00:58N 37°24' E 024°53'0 0.0
2017-Nov-18 00:28N 37°24' E 024°53'0 0.0
2017-Nov-17 23:55N 37°24' E 024°53'0 0.0
2017-Nov-17 23:28N 37°24' E 024°53'0 0.0
2017-Nov-17 22:58N 37°24' E 024°53'0 0.0
2017-Nov-17 22:28N 37°24' E 024°53'0 0.0
2017-Nov-17 21:58N 37°24' E 024°53'0 0.0
2017-Nov-17 21:16N 37°24' E 024°53'0 0.0
2017-Nov-17 20:55N 37°24' E 024°53'0 0.0
2017-Nov-17 20:28N 37°24' E 024°53'0 0.0
2017-Nov-17 19:52N 37°24' E 024°53'0 0.0
2017-Nov-17 19:28N 37°24' E 024°53'0 0.0
2017-Nov-17 18:58N 37°24' E 024°53'0 0.0
2017-Nov-17 18:22N 37°24' E 024°53'0 0.0
2017-Nov-17 17:55N 37°24' E 024°53'0 0.0
2017-Nov-17 17:28N 37°24' E 024°53'0 0.0
2017-Nov-17 16:58N 37°24' E 024°53'0 0.0
2017-Nov-17 16:28N 37°24' E 024°53'0 0.0
2017-Nov-17 15:55N 37°24' E 024°53'0 0.0
2017-Nov-17 15:13N 37°24' E 024°53'0 0.0
2017-Nov-17 14:58N 37°24' E 024°53'0 0.0
2017-Nov-17 14:28N 37°24' E 024°53'0 0.0
2017-Nov-17 13:55N 37°24' E 024°53'0 0.0
2017-Nov-17 13:28N 37°24' E 024°53'0 0.0
2017-Nov-17 12:58N 37°24' E 024°53'0 0.0
2017-Nov-17 12:28N 37°24' E 024°53'0 0.0
2017-Nov-17 11:55N 37°24' E 024°53'0 0.0
2017-Nov-17 11:28N 37°24' E 024°53'0 0.0
2017-Nov-17 10:55N 37°24' E 024°53'0 0.0
2017-Nov-17 10:29N 37°24' E 024°53'0 0.0
2017-Nov-17 09:58N 37°24' E 024°53'0 0.0
2017-Nov-17 09:29N 37°24' E 024°53'0 0.0
2017-Nov-17 08:58N 37°24' E 024°53'0 0.0
2017-Nov-17 08:26N 37°24' E 024°53'0 0.0
2017-Nov-17 07:59N 37°24' E 024°53'0 0.0
2017-Nov-17 07:17N 37°24' E 024°53'0 0.0
2017-Nov-17 06:56N 37°24' E 024°53'0 0.0
2017-Nov-17 06:29N 37°24' E 024°53'0 0.0
2017-Nov-17 05:59N 37°24' E 024°53'0 0.0
2017-Nov-17 05:29N 37°24' E 024°53'0 0.0
2017-Nov-17 04:59N 37°24' E 024°53'0 0.0
2017-Nov-17 04:29N 37°24' E 024°53'0 0.0
2017-Nov-17 03:53N 37°24' E 024°53'0 0.0
2017-Nov-17 03:26N 37°24' E 024°53'0 0.0
2017-Nov-17 02:59N 37°24' E 024°53'0 0.0
2017-Nov-17 02:26N 37°24' E 024°53'0 0.0
2017-Nov-17 01:53N 37°24' E 024°53'0 0.0
2017-Nov-17 00:35N 37°24' E 024°53'0 0.0
2017-Nov-17 00:20N 37°24' E 024°53'0 0.0
2017-Nov-16 23:56N 37°24' E 024°53'0 0.0
2017-Nov-16 23:26N 37°24' E 024°53'0 0.0
2017-Nov-16 22:56N 37°24' E 024°53'0 0.0
2017-Nov-16 22:29N 37°24' E 024°53'0 0.0
2017-Nov-16 21:56N 37°24' E 024°53'0 0.0
2017-Nov-16 21:29N 37°24' E 024°53'0 0.0
2017-Nov-16 20:59N 37°24' E 024°53'0 0.0
2017-Nov-16 20:14N 37°24' E 024°53'0 0.0
2017-Nov-16 19:17N 37°24' E 024°53'0 0.0
2017-Nov-16 18:14N 37°24' E 024°53'0 0.0
2017-Nov-16 17:05N 37°24' E 024°53'0 0.0
2017-Nov-16 16:59N 37°24' E 024°53'0 0.0
2017-Nov-16 16:29N 37°24' E 024°53'0 0.0
2017-Nov-16 15:59N 37°24' E 024°53'0 0.0
2017-Nov-16 15:23N 37°24' E 024°53'0 0.0
2017-Nov-16 14:59N 37°24' E 024°53'0 0.0
2017-Nov-16 14:26N 37°24' E 024°53'0 0.0
2017-Nov-16 13:56N 37°24' E 024°53'0 0.0
2017-Nov-16 13:29N 37°24' E 024°53'0 0.0
2017-Nov-16 12:59N 37°24' E 024°53'0 0.0
2017-Nov-16 12:23N 37°24' E 024°53'0 0.0
2017-Nov-16 11:59N 37°24' E 024°53'0 0.0
2017-Nov-16 11:29N 37°24' E 024°53'0 0.0
2017-Nov-16 10:59N 37°24' E 024°53'0 0.0
2017-Nov-16 10:26N 37°24' E 024°53'0 0.0
2017-Nov-16 09:59N 37°24' E 024°53'0 0.0
2017-Nov-16 09:26N 37°24' E 024°53'0 0.0
2017-Nov-16 08:59N 37°24' E 024°53'0 0.0
2017-Nov-16 08:29N 37°24' E 024°53'0 0.0
2017-Nov-16 07:44N 37°24' E 024°53'0 0.0
2017-Nov-16 07:29N 37°24' E 024°53'0 0.0
2017-Nov-16 06:56N 37°24' E 024°53'0 0.0
2017-Nov-16 06:23N 37°24' E 024°53'0 0.0
2017-Nov-16 05:59N 37°24' E 024°53'0 0.0
2017-Nov-16 05:29N 37°24' E 024°53'0 0.0
2017-Nov-16 04:59N 37°24' E 024°53'0 0.0
2017-Nov-16 04:29N 37°24' E 024°53'0 0.0
2017-Nov-16 03:59N 37°24' E 024°53'0 0.0
2017-Nov-16 03:29N 37°24' E 024°53'0 0.0
2017-Nov-16 02:59N 37°24' E 024°53'0 0.0
2017-Nov-16 02:29N 37°24' E 024°53'0 0.0
2017-Nov-16 01:59N 37°24' E 024°53'0 0.0
2017-Nov-16 01:20N 37°24' E 024°53'0 0.0
2017-Nov-16 00:59N 37°24' E 024°53'0 0.0
2017-Nov-16 00:20N 37°24' E 024°53'0 0.0
2017-Nov-15 23:50N 37°24' E 024°53'0 0.0
2017-Nov-15 23:29N 37°24' E 024°53'0 0.0
2017-Nov-15 22:59N 37°24' E 024°53'0 0.0
2017-Nov-15 22:29N 37°24' E 024°53'0 0.0
2017-Nov-15 21:59N 37°24' E 024°53'0 0.0
2017-Nov-15 21:29N 37°24' E 024°53'0 0.0
2017-Nov-15 20:56N 37°24' E 024°53'0 0.0
2017-Nov-15 20:23N 37°24' E 024°53'0 0.0
2017-Nov-15 19:53N 37°24' E 024°53'0 0.0
2017-Nov-15 19:23N 37°24' E 024°53'0 0.0
2017-Nov-15 18:59N 37°24' E 024°53'0 0.0
2017-Nov-15 18:29N 37°24' E 024°53'0 0.0
2017-Nov-15 17:56N 37°24' E 024°53'0 0.0
2017-Nov-15 17:29N 37°24' E 024°53'0 0.0
2017-Nov-15 16:56N 37°24' E 024°53'0 0.0
2017-Nov-15 16:29N 37°24' E 024°53'0 0.0
2017-Nov-15 15:59N 37°24' E 024°53'0 0.0
2017-Nov-15 15:26N 37°24' E 024°53'0 0.0
2017-Nov-15 14:56N 37°24' E 024°53'0 0.0
2017-Nov-15 14:29N 37°24' E 024°53'0 0.0
2017-Nov-15 13:56N 37°24' E 024°53'0 0.0
2017-Nov-15 13:29N 37°24' E 024°53'0 0.0
2017-Nov-15 12:14N 37°24' E 024°53'0 0.0
2017-Nov-15 11:50N 37°24' E 024°53'0 0.0
2017-Nov-15 11:29N 37°24' E 024°53'0 0.0
2017-Nov-15 10:59N 37°24' E 024°53'  
Track history (hours):
 
Tides and Currents Weather Stations Pressure Air Temp Water Temp Dewpoint Dewpoint Depression Visibility Wind Speed Wind Dir Waves Ship Positions

Touranou

Last reported at 2017-Nov-25 10:55 UTC. Time now 2018-Feb-22 14:58 UTC.
Position N 37°24' E 024°59'.
Warning: this ship's position is months out of date.

Length 16 m.

Type: Sailing vessel. MMSI: 237172600.

Date/timePositionNaut miles runAvg speedWind from/ knotsBaromVisibWave heightAir tempDewpointWater temp
2017-Nov-25 10:55N 37°24' E 024°59'1 3.0
2017-Nov-25 10:25N 37°23' E 024°58'2 4.7
2017-Nov-25 10:00N 37°22' E 024°55'2 4.6
2017-Nov-25 09:31N 37°22' E 024°52'2 3.7
2017-Nov-25 08:57N 37°24' E 024°53'0 0.0
2017-Nov-25 08:24N 37°24' E 024°53'0 0.0
2017-Nov-25 08:00N 37°24' E 024°53'0 0.0
2017-Nov-25 07:24N 37°24' E 024°53'0 0.0
2017-Nov-25 07:00N 37°24' E 024°53'0 0.0
2017-Nov-25 06:24N 37°24' E 024°53'0 0.0
2017-Nov-25 06:00N 37°24' E 024°53'0 0.0
2017-Nov-25 05:15N 37°24' E 024°53'0 0.0
2017-Nov-25 05:00N 37°24' E 024°53'0 0.0
2017-Nov-25 04:24N 37°24' E 024°53'0 0.0
2017-Nov-25 03:57N 37°24' E 024°53'0 0.0
2017-Nov-25 03:30N 37°24' E 024°53'0 0.0
2017-Nov-25 02:57N 37°24' E 024°53'0 0.0
2017-Nov-25 02:30N 37°24' E 024°53'0 0.0
2017-Nov-25 01:54N 37°24' E 024°53'0 0.0
2017-Nov-25 01:27N 37°24' E 024°53'0 0.0
2017-Nov-25 00:57N 37°24' E 024°53'0 0.0
2017-Nov-25 00:30N 37°24' E 024°53'0 0.0
2017-Nov-25 00:00N 37°24' E 024°53'0 0.0
2017-Nov-24 23:30N 37°24' E 024°53'0 0.0
2017-Nov-24 22:57N 37°24' E 024°53'0 0.0
2017-Nov-24 22:30N 37°24' E 024°53'0 0.0
2017-Nov-24 22:00N 37°24' E 024°53'0 0.0
2017-Nov-24 21:24N 37°24' E 024°53'0 0.0
2017-Nov-24 21:00N 37°24' E 024°53'0 0.0
2017-Nov-24 20:30N 37°24' E 024°53'0 0.0
2017-Nov-24 19:51N 37°24' E 024°53'0 0.0
2017-Nov-24 19:06N 37°24' E 024°53'0 0.0
2017-Nov-24 19:00N 37°24' E 024°53'0 0.0
2017-Nov-24 18:30N 37°24' E 024°53'0 0.0
2017-Nov-24 17:57N 37°24' E 024°53'0 0.0
2017-Nov-24 17:30N 37°24' E 024°53'1 1.6
2017-Nov-24 17:00N 37°23' E 024°52'14 6.2
2017-Nov-24 14:43N 37°15' E 024°37'1 2.1
2017-Nov-24 14:28N 37°15' E 024°37'0 0.3
2017-Nov-24 14:00N 37°15' E 024°37'0 0.2
2017-Nov-24 13:30N 37°15' E 024°37'0 0.1
2017-Nov-24 12:59N 37°15' E 024°37'0 0.1
2017-Nov-24 12:28N 37°15' E 024°37'1 2.1
2017-Nov-24 12:00N 37°16' E 024°38'3 5.6
2017-Nov-24 11:30N 37°17' E 024°41'3 5.6
2017-Nov-24 11:00N 37°18' E 024°44'3 5.7
2017-Nov-24 10:30N 37°19' E 024°47'3 6.0
2017-Nov-24 10:00N 37°21' E 024°51'2 4.6
2017-Nov-24 09:30N 37°22' E 024°53'2 3.0
2017-Nov-24 09:01N 37°23' E 024°52'1 0.5
2017-Nov-24 07:42N 37°24' E 024°53'0 0.0
2017-Nov-24 07:15N 37°24' E 024°53'0 0.0
2017-Nov-24 06:45N 37°24' E 024°53'0 0.0
2017-Nov-24 06:30N 37°24' E 024°53'0 0.0
2017-Nov-24 06:00N 37°24' E 024°53'0 0.0
2017-Nov-24 05:30N 37°24' E 024°53'0 0.0
2017-Nov-24 05:00N 37°24' E 024°53'0 0.0
2017-Nov-24 04:27N 37°24' E 024°53'0 0.0
2017-Nov-24 04:00N 37°24' E 024°53'0 0.0
2017-Nov-24 03:27N 37°24' E 024°53'0 0.0
2017-Nov-24 02:51N 37°24' E 024°53'0 0.0
2017-Nov-24 02:30N 37°24' E 024°53'0 0.0
2017-Nov-24 02:00N 37°24' E 024°53'0 0.0
2017-Nov-24 01:27N 37°24' E 024°53'0 0.0
2017-Nov-24 00:57N 37°24' E 024°53'0 0.0
2017-Nov-24 00:27N 37°24' E 024°53'0 0.0
2017-Nov-24 00:00N 37°24' E 024°53'0 0.0
2017-Nov-23 23:30N 37°24' E 024°53'0 0.0
2017-Nov-23 22:51N 37°24' E 024°53'0 0.0
2017-Nov-23 22:27N 37°24' E 024°53'0 0.0
2017-Nov-23 21:57N 37°24' E 024°53'0 0.0
2017-Nov-23 20:30N 37°24' E 024°53'0 0.0
2017-Nov-23 19:57N 37°24' E 024°53'0 0.0
2017-Nov-23 19:24N 37°24' E 024°53'0 0.0
2017-Nov-23 18:42N 37°24' E 024°53'0 0.0
2017-Nov-23 18:15N 37°24' E 024°53'0 0.0
2017-Nov-23 17:51N 37°24' E 024°53'0 0.0
2017-Nov-23 16:51N 37°24' E 024°53'0 0.0
2017-Nov-23 13:45N 37°24' E 024°53'0 0.0
2017-Nov-23 13:27N 37°24' E 024°53'0 0.0
2017-Nov-23 12:03N 37°24' E 024°53'0 0.0
2017-Nov-23 11:57N 37°24' E 024°53'0 0.0
2017-Nov-23 11:27N 37°24' E 024°53'0 0.0
2017-Nov-23 11:00N 37°24' E 024°53'0 0.0
2017-Nov-23 10:24N 37°24' E 024°53'0 0.0
2017-Nov-23 08:45N 37°24' E 024°53'0 0.0
2017-Nov-23 08:21N 37°24' E 024°53'0 0.0
2017-Nov-23 07:57N 37°24' E 024°53'0 0.0
2017-Nov-23 07:30N 37°24' E 024°53'0 0.0
2017-Nov-23 07:00N 37°24' E 024°53'0 0.0
2017-Nov-23 06:30N 37°24' E 024°53'0 0.0
2017-Nov-23 05:57N 37°24' E 024°53'0 0.0
2017-Nov-23 05:27N 37°24' E 024°53'0 0.0
2017-Nov-23 04:51N 37°24' E 024°53'0 0.0
2017-Nov-23 04:27N 37°24' E 024°53'0 0.0
2017-Nov-22 23:39N 37°24' E 024°53'0 0.0
2017-Nov-22 23:27N 37°24' E 024°53'0 0.0
2017-Nov-22 22:48N 37°24' E 024°53'0 0.0
2017-Nov-22 22:30N 37°24' E 024°53'0 0.0
2017-Nov-22 21:39N 37°24' E 024°53'0 0.0
2017-Nov-22 21:27N 37°24' E 024°53'0 0.0
2017-Nov-22 20:54N 37°24' E 024°53'0 0.0
2017-Nov-22 20:30N 37°24' E 024°53'0 0.0
2017-Nov-22 19:54N 37°24' E 024°53'0 0.0
2017-Nov-22 19:30N 37°24' E 024°53'  
2017-Nov-20 00:28N 37°24' E 024°53'0 0.0
2017-Nov-19 23:58N 37°24' E 024°53'0 0.0
2017-Nov-19 23:28N 37°24' E 024°53'0 0.0
2017-Nov-19 22:58N 37°24' E 024°53'0 0.0
2017-Nov-19 22:28N 37°24' E 024°53'0 0.0
2017-Nov-19 21:58N 37°24' E 024°53'0 0.0
2017-Nov-19 21:28N 37°24' E 024°53'0 0.0
2017-Nov-19 20:58N 37°24' E 024°53'0 0.0
2017-Nov-19 20:25N 37°24' E 024°53'0 0.0
2017-Nov-19 19:58N 37°24' E 024°53'0 0.0
2017-Nov-19 19:28N 37°24' E 024°53'0 0.0
2017-Nov-19 18:55N 37°24' E 024°53'0 0.0
2017-Nov-19 18:25N 37°24' E 024°53'0 0.0
2017-Nov-19 17:58N 37°24' E 024°53'0 0.0
2017-Nov-19 17:28N 37°24' E 024°53'0 0.0
2017-Nov-19 16:55N 37°24' E 024°53'0 0.0
2017-Nov-19 16:28N 37°24' E 024°53'0 0.0
2017-Nov-19 15:58N 37°24' E 024°53'0 0.0
2017-Nov-19 15:22N 37°24' E 024°53'0 0.0
2017-Nov-19 14:49N 37°24' E 024°53'0 0.0
2017-Nov-19 14:22N 37°24' E 024°53'0 0.0
2017-Nov-19 13:31N 37°24' E 024°53'0 0.0
2017-Nov-19 13:28N 37°24' E 024°53'0 0.0
2017-Nov-19 12:58N 37°24' E 024°53'0 0.0
2017-Nov-19 12:28N 37°24' E 024°53'0 0.0
2017-Nov-19 11:58N 37°24' E 024°53'0 0.0
2017-Nov-19 11:28N 37°24' E 024°53'0 0.0
2017-Nov-19 10:58N 37°24' E 024°53'0 0.0
2017-Nov-19 10:28N 37°24' E 024°53'0 0.0
2017-Nov-19 09:58N 37°24' E 024°53'0 0.0
2017-Nov-19 09:28N 37°24' E 024°53'0 0.0
2017-Nov-19 08:55N 37°24' E 024°53'0 0.0
2017-Nov-19 08:25N 37°24' E 024°53'0 0.0
2017-Nov-19 07:58N 37°24' E 024°53'0 0.0
2017-Nov-19 07:28N 37°24' E 024°53'0 0.0
2017-Nov-19 06:58N 37°24' E 024°53'0 0.0
2017-Nov-19 06:19N 37°24' E 024°53'0 0.0
2017-Nov-19 05:52N 37°24' E 024°53'0 0.0
2017-Nov-19 05:28N 37°24' E 024°53'0 0.0
2017-Nov-19 04:58N 37°24' E 024°53'0 0.0
2017-Nov-19 04:28N 37°24' E 024°53'0 0.0
2017-Nov-19 03:58N 37°24' E 024°53'0 0.0
2017-Nov-19 03:28N 37°24' E 024°53'0 0.0
2017-Nov-19 02:52N 37°24' E 024°53'0 0.0
2017-Nov-19 01:58N 37°24' E 024°53'0 0.0
2017-Nov-19 01:28N 37°24' E 024°53'0 0.0
2017-Nov-19 00:58N 37°24' E 024°53'0 0.0
2017-Nov-19 00:28N 37°24' E 024°53'0 0.0
2017-Nov-18 23:55N 37°24' E 024°53'0 0.0
2017-Nov-18 23:28N 37°24' E 024°53'0 0.0
2017-Nov-18 22:58N 37°24' E 024°53'0 0.0
2017-Nov-18 22:28N 37°24' E 024°53'0 0.0
2017-Nov-18 21:55N 37°24' E 024°53'0 0.0
2017-Nov-18 21:28N 37°24' E 024°53'0 0.0
2017-Nov-18 20:58N 37°24' E 024°53'0 0.0
2017-Nov-18 20:28N 37°24' E 024°53'0 0.0
2017-Nov-18 19:55N 37°24' E 024°53'0 0.0
2017-Nov-18 19:28N 37°24' E 024°53'0 0.0
2017-Nov-18 18:55N 37°24' E 024°53'0 0.0
2017-Nov-18 18:28N 37°24' E 024°53'0 0.0
2017-Nov-18 17:58N 37°24' E 024°53'0 0.0
2017-Nov-18 17:28N 37°24' E 024°53'0 0.0
2017-Nov-18 16:58N 37°24' E 024°53'0 0.0
2017-Nov-18 16:16N 37°24' E 024°53'0 0.0
2017-Nov-18 15:58N 37°24' E 024°53'0 0.0
2017-Nov-18 15:28N 37°24' E 024°53'0 0.0
2017-Nov-18 14:58N 37°24' E 024°53'0 0.0
2017-Nov-18 14:28N 37°24' E 024°53'0 0.0
2017-Nov-18 13:58N 37°24' E 024°53'0 0.0
2017-Nov-18 13:16N 37°24' E 024°53'0 0.0
2017-Nov-18 12:58N 37°24' E 024°53'0 0.0
2017-Nov-18 12:28N 37°24' E 024°53'0 0.0
2017-Nov-18 11:58N 37°24' E 024°53'0 0.0
2017-Nov-18 11:28N 37°24' E 024°53'0 0.0
2017-Nov-18 10:55N 37°24' E 024°53'0 0.0
2017-Nov-18 10:25N 37°24' E 024°53'0 0.0
2017-Nov-18 09:52N 37°24' E 024°53'0 0.0
2017-Nov-18 09:22N 37°24' E 024°53'0 0.0
2017-Nov-18 08:58N 37°24' E 024°53'0 0.0
2017-Nov-18 08:22N 37°24' E 024°53'0 0.0
2017-Nov-18 07:55N 37°24' E 024°53'0 0.0
2017-Nov-18 07:28N 37°24' E 024°53'0 0.0
2017-Nov-18 06:49N 37°24' E 024°53'0 0.0
2017-Nov-18 06:28N 37°24' E 024°53'0 0.0
2017-Nov-18 05:58N 37°24' E 024°53'0 0.0
2017-Nov-18 05:28N 37°24' E 024°53'0 0.0
2017-Nov-18 04:55N 37°24' E 024°53'0 0.0
2017-Nov-18 04:25N 37°24' E 024°53'0 0.0
2017-Nov-18 03:58N 37°24' E 024°53'0 0.0
2017-Nov-18 03:28N 37°24' E 024°53'0 0.0
2017-Nov-18 02:58N 37°24' E 024°53'0 0.0
2017-Nov-18 02:28N 37°24' E 024°53'0 0.0
2017-Nov-18 01:52N 37°24' E 024°53'0 0.0
2017-Nov-18 01:28N 37°24' E 024°53'0 0.0
2017-Nov-18 00:58N 37°24' E 024°53'0 0.0
2017-Nov-18 00:28N 37°24' E 024°53'0 0.0
2017-Nov-17 23:55N 37°24' E 024°53'0 0.0
2017-Nov-17 23:28N 37°24' E 024°53'0 0.0
2017-Nov-17 22:58N 37°24' E 024°53'0 0.0
2017-Nov-17 22:28N 37°24' E 024°53'0 0.0
2017-Nov-17 21:58N 37°24' E 024°53'0 0.0
2017-Nov-17 21:16N 37°24' E 024°53'0 0.0
2017-Nov-17 20:55N 37°24' E 024°53'0 0.0
2017-Nov-17 20:28N 37°24' E 024°53'0 0.0
2017-Nov-17 19:52N 37°24' E 024°53'0 0.0
2017-Nov-17 19:28N 37°24' E 024°53'0 0.0
2017-Nov-17 18:58N 37°24' E 024°53'0 0.0
2017-Nov-17 18:22N 37°24' E 024°53'0 0.0
2017-Nov-17 17:55N 37°24' E 024°53'0 0.0
2017-Nov-17 17:28N 37°24' E 024°53'0 0.0
2017-Nov-17 16:58N 37°24' E 024°53'0 0.0
2017-Nov-17 16:28N 37°24' E 024°53'0 0.0
2017-Nov-17 15:55N 37°24' E 024°53'0 0.0
2017-Nov-17 15:13N 37°24' E 024°53'0 0.0
2017-Nov-17 14:58N 37°24' E 024°53'0 0.0
2017-Nov-17 14:28N 37°24' E 024°53'0 0.0
2017-Nov-17 13:55N 37°24' E 024°53'0 0.0
2017-Nov-17 13:28N 37°24' E 024°53'0 0.0
2017-Nov-17 12:58N 37°24' E 024°53'0 0.0
2017-Nov-17 12:28N 37°24' E 024°53'0 0.0
2017-Nov-17 11:55N 37°24' E 024°53'0 0.0
2017-Nov-17 11:28N 37°24' E 024°53'0 0.0
2017-Nov-17 10:55N 37°24' E 024°53'0 0.0
2017-Nov-17 10:29N 37°24' E 024°53'0 0.0
2017-Nov-17 09:58N 37°24' E 024°53'0 0.0
2017-Nov-17 09:29N 37°24' E 024°53'0 0.0
2017-Nov-17 08:58N 37°24' E 024°53'0 0.0
2017-Nov-17 08:26N 37°24' E 024°53'0 0.0
2017-Nov-17 07:59N 37°24' E 024°53'0 0.0
2017-Nov-17 07:17N 37°24' E 024°53'0 0.0
2017-Nov-17 06:56N 37°24' E 024°53'0 0.0
2017-Nov-17 06:29N 37°24' E 024°53'0 0.0
2017-Nov-17 05:59N 37°24' E 024°53'0 0.0
2017-Nov-17 05:29N 37°24' E 024°53'0 0.0
2017-Nov-17 04:59N 37°24' E 024°53'0 0.0
2017-Nov-17 04:29N 37°24' E 024°53'0 0.0
2017-Nov-17 03:53N 37°24' E 024°53'0 0.0
2017-Nov-17 03:26N 37°24' E 024°53'0 0.0
2017-Nov-17 02:59N 37°24' E 024°53'0 0.0
2017-Nov-17 02:26N 37°24' E 024°53'0 0.0
2017-Nov-17 01:53N 37°24' E 024°53'0 0.0
2017-Nov-17 00:35N 37°24' E 024°53'0 0.0
2017-Nov-17 00:20N 37°24' E 024°53'0 0.0
2017-Nov-16 23:56N 37°24' E 024°53'0 0.0
2017-Nov-16 23:26N 37°24' E 024°53'0 0.0
2017-Nov-16 22:56N 37°24' E 024°53'0 0.0
2017-Nov-16 22:29N 37°24' E 024°53'0 0.0
2017-Nov-16 21:56N 37°24' E 024°53'0 0.0
2017-Nov-16 21:29N 37°24' E 024°53'0 0.0
2017-Nov-16 20:59N 37°24' E 024°53'0 0.0
2017-Nov-16 20:14N 37°24' E 024°53'0 0.0
2017-Nov-16 19:17N 37°24' E 024°53'0 0.0
2017-Nov-16 18:14N 37°24' E 024°53'0 0.0
2017-Nov-16 17:05N 37°24' E 024°53'0 0.0
2017-Nov-16 16:59N 37°24' E 024°53'0 0.0
2017-Nov-16 16:29N 37°24' E 024°53'0 0.0
2017-Nov-16 15:59N 37°24' E 024°53'0 0.0
2017-Nov-16 15:23N 37°24' E 024°53'0 0.0
2017-Nov-16 14:59N 37°24' E 024°53'0 0.0
2017-Nov-16 14:26N 37°24' E 024°53'0 0.0
2017-Nov-16 13:56N 37°24' E 024°53'0 0.0
2017-Nov-16 13:29N 37°24' E 024°53'0 0.0
2017-Nov-16 12:59N 37°24' E 024°53'0 0.0
2017-Nov-16 12:23N 37°24' E 024°53'0 0.0
2017-Nov-16 11:59N 37°24' E 024°53'0 0.0
2017-Nov-16 11:29N 37°24' E 024°53'0 0.0
2017-Nov-16 10:59N 37°24' E 024°53'0 0.0
2017-Nov-16 10:26N 37°24' E 024°53'0 0.0
2017-Nov-16 09:59N 37°24' E 024°53'0 0.0
2017-Nov-16 09:26N 37°24' E 024°53'0 0.0
2017-Nov-16 08:59N 37°24' E 024°53'0 0.0
2017-Nov-16 08:29N 37°24' E 024°53'0 0.0
2017-Nov-16 07:44N 37°24' E 024°53'0 0.0
2017-Nov-16 07:29N 37°24' E 024°53'0 0.0
2017-Nov-16 06:56N 37°24' E 024°53'0 0.0
2017-Nov-16 06:23N 37°24' E 024°53'0 0.0
2017-Nov-16 05:59N 37°24' E 024°53'0 0.0
2017-Nov-16 05:29N 37°24' E 024°53'0 0.0
2017-Nov-16 04:59N 37°24' E 024°53'0 0.0
2017-Nov-16 04:29N 37°24' E 024°53'0 0.0
2017-Nov-16 03:59N 37°24' E 024°53'0 0.0
2017-Nov-16 03:29N 37°24' E 024°53'0 0.0
2017-Nov-16 02:59N 37°24' E 024°53'0 0.0
2017-Nov-16 02:29N 37°24' E 024°53'0 0.0
2017-Nov-16 01:59N 37°24' E 024°53'0 0.0
2017-Nov-16 01:20N 37°24' E 024°53'0 0.0
2017-Nov-16 00:59N 37°24' E 024°53'0 0.0
2017-Nov-16 00:20N 37°24' E 024°53'0 0.0
2017-Nov-15 23:50N 37°24' E 024°53'0 0.0
2017-Nov-15 23:29N 37°24' E 024°53'0 0.0
2017-Nov-15 22:59N 37°24' E 024°53'0 0.0
2017-Nov-15 22:29N 37°24' E 024°53'0 0.0
2017-Nov-15 21:59N 37°24' E 024°53'0 0.0
2017-Nov-15 21:29N 37°24' E 024°53'0 0.0
2017-Nov-15 20:56N 37°24' E 024°53'0 0.0
2017-Nov-15 20:23N 37°24' E 024°53'0 0.0
2017-Nov-15 19:53N 37°24' E 024°53'0 0.0
2017-Nov-15 19:23N 37°24' E 024°53'0 0.0
2017-Nov-15 18:59N 37°24' E 024°53'0 0.0
2017-Nov-15 18:29N 37°24' E 024°53'0 0.0
2017-Nov-15 17:56N 37°24' E 024°53'0 0.0
2017-Nov-15 17:29N 37°24' E 024°53'0 0.0
2017-Nov-15 16:56N 37°24' E 024°53'0 0.0
2017-Nov-15 16:29N 37°24' E 024°53'0 0.0
2017-Nov-15 15:59N 37°24' E 024°53'0 0.0
2017-Nov-15 15:26N 37°24' E 024°53'0 0.0
2017-Nov-15 14:56N 37°24' E 024°53'0 0.0
2017-Nov-15 14:29N 37°24' E 024°53'0 0.0
2017-Nov-15 13:56N 37°24' E 024°53'0 0.0
2017-Nov-15 13:29N 37°24' E 024°53'0 0.0
2017-Nov-15 12:14N 37°24' E 024°53'0 0.0
2017-Nov-15 11:50N 37°24' E 024°53'0 0.0
2017-Nov-15 11:29N 37°24' E 024°53'0 0.0
2017-Nov-15 10:59N 37°24' E 024°53'  

Dump ship's entire track history